sensor_id;sensor_type;location;lat;lon;timestamp;pressure;altitude;pressure_sealevel;temperature;humidity
74343;BME280;62767;50.300;8.070;2024-01-07T00:01:49;99585.44;;;16.97;38.67
74343;BME280;62767;50.300;8.070;2024-01-07T00:04:18;99576.72;;;17.06;38.68
74343;BME280;62767;50.300;8.070;2024-01-07T00:06:46;99577.66;;;16.95;38.57
74343;BME280;62767;50.300;8.070;2024-01-07T00:09:12;99587.38;;;17.23;38.68
74343;BME280;62767;50.300;8.070;2024-01-07T00:11:38;99581.72;;;17.09;38.74
74343;BME280;62767;50.300;8.070;2024-01-07T00:14:04;99585.84;;;17.11;38.62
74343;BME280;62767;50.300;8.070;2024-01-07T00:16:30;99582.81;;;17.16;38.63
74343;BME280;62767;50.300;8.070;2024-01-07T00:18:55;99584.63;;;17.25;38.51
74343;BME280;62767;50.300;8.070;2024-01-07T00:21:23;99584.75;;;17.23;38.32
74343;BME280;62767;50.300;8.070;2024-01-07T00:23:50;99586.25;;;17.07;38.67
74343;BME280;62767;50.300;8.070;2024-01-07T00:26:15;99592.63;;;17.23;38.94
74343;BME280;62767;50.300;8.070;2024-01-07T00:28:41;99597.63;;;17.07;38.52
74343;BME280;62767;50.300;8.070;2024-01-07T00:31:12;99596.22;;;17.13;38.61
74343;BME280;62767;50.300;8.070;2024-01-07T00:33:43;99603.88;;;17.16;38.57
74343;BME280;62767;50.300;8.070;2024-01-07T00:36:13;99602.19;;;17.15;38.56
74343;BME280;62767;50.300;8.070;2024-01-07T00:38:39;99597.78;;;17.15;38.75
74343;BME280;62767;50.300;8.070;2024-01-07T00:41:04;99605.50;;;17.17;38.69
74343;BME280;62767;50.300;8.070;2024-01-07T00:43:30;99600.78;;;17.11;38.82
74343;BME280;62767;50.300;8.070;2024-01-07T00:45:58;99606.75;;;17.22;38.56
74343;BME280;62767;50.300;8.070;2024-01-07T00:48:26;99603.50;;;16.71;38.88
74343;BME280;62767;50.300;8.070;2024-01-07T00:50:52;99607.78;;;16.72;38.52
74343;BME280;62767;50.300;8.070;2024-01-07T00:53:17;99610.97;;;16.35;38.64
74343;BME280;62767;50.300;8.070;2024-01-07T00:55:45;99611.88;;;16.25;40.06
74343;BME280;62767;50.300;8.070;2024-01-07T00:58:16;99620.19;;;16.30;40.07
74343;BME280;62767;50.300;8.070;2024-01-07T01:00:49;99611.84;;;16.45;39.19
74343;BME280;62767;50.300;8.070;2024-01-07T01:03:27;99621.38;;;16.46;39.18
74343;BME280;62767;50.300;8.070;2024-01-07T01:06:01;99617.28;;;17.32;37.90
74343;BME280;62767;50.300;8.070;2024-01-07T01:08:28;99622.53;;;17.22;37.02
74343;BME280;62767;50.300;8.070;2024-01-07T01:10:53;99625.44;;;17.58;36.85
74343;BME280;62767;50.300;8.070;2024-01-07T01:13:22;99630.28;;;17.34;37.38
74343;BME280;62767;50.300;8.070;2024-01-07T01:15:48;99641.41;;;17.66;37.69
74343;BME280;62767;50.300;8.070;2024-01-07T01:18:13;99639.56;;;17.57;36.67
74343;BME280;62767;50.300;8.070;2024-01-07T01:20:39;99635.44;;;17.74;36.92
74343;BME280;62767;50.300;8.070;2024-01-07T01:23:05;99640.69;;;17.45;37.26
74343;BME280;62767;50.300;8.070;2024-01-07T01:25:30;99637.25;;;17.73;36.81
74343;BME280;62767;50.300;8.070;2024-01-07T01:28:02;99640.28;;;17.49;37.13
74343;BME280;62767;50.300;8.070;2024-01-07T01:30:28;99636.22;;;17.16;37.67
74343;BME280;62767;50.300;8.070;2024-01-07T01:32:57;99634.72;;;17.14;38.03
74343;BME280;62767;50.300;8.070;2024-01-07T01:35:22;99645.22;;;17.04;38.43
74343;BME280;62767;50.300;8.070;2024-01-07T01:37:48;99648.25;;;17.00;38.66
74343;BME280;62767;50.300;8.070;2024-01-07T01:40:13;99649.66;;;17.04;38.69
74343;BME280;62767;50.300;8.070;2024-01-07T01:42:43;99656.53;;;17.05;38.66
74343;BME280;62767;50.300;8.070;2024-01-07T01:45:09;99647.69;;;17.06;37.97
74343;BME280;62767;50.300;8.070;2024-01-07T01:47:34;99658.03;;;16.88;38.67
74343;BME280;62767;50.300;8.070;2024-01-07T01:50:00;99661.38;;;16.90;38.66
74343;BME280;62767;50.300;8.070;2024-01-07T01:52:26;99661.25;;;17.01;39.43
74343;BME280;62767;50.300;8.070;2024-01-07T01:54:52;99650.44;;;16.85;38.70
74343;BME280;62767;50.300;8.070;2024-01-07T01:57:20;99658.34;;;16.95;38.96
74343;BME280;62767;50.300;8.070;2024-01-07T01:59:48;99657.06;;;16.89;38.81
74343;BME280;62767;50.300;8.070;2024-01-07T02:02:14;99657.25;;;17.07;38.80
74343;BME280;62767;50.300;8.070;2024-01-07T02:04:40;99664.44;;;17.05;38.65
74343;BME280;62767;50.300;8.070;2024-01-07T02:07:05;99656.81;;;16.92;38.88
74343;BME280;62767;50.300;8.070;2024-01-07T02:09:31;99659.34;;;17.03;38.92
74343;BME280;62767;50.300;8.070;2024-01-07T02:14:27;99655.56;;;16.86;39.19
74343;BME280;62767;50.300;8.070;2024-01-07T02:16:52;99649.22;;;16.99;39.06
74343;BME280;62767;50.300;8.070;2024-01-07T02:19:20;99663.09;;;17.20;39.07
74343;BME280;62767;50.300;8.070;2024-01-07T02:21:47;99662.97;;;17.21;38.81
74343;BME280;62767;50.300;8.070;2024-01-07T02:24:16;99655.41;;;16.88;39.22
74343;BME280;62767;50.300;8.070;2024-01-07T02:26:41;99660.53;;;16.89;39.93
74343;BME280;62767;50.300;8.070;2024-01-07T02:29:07;99655.94;;;16.82;39.93
74343;BME280;62767;50.300;8.070;2024-01-07T02:31:32;99660.94;;;16.85;40.20
74343;BME280;62767;50.300;8.070;2024-01-07T02:33:58;99666.22;;;16.95;40.37
74343;BME280;62767;50.300;8.070;2024-01-07T02:36:23;99662.91;;;16.93;40.33
74343;BME280;62767;50.300;8.070;2024-01-07T02:38:49;99658.56;;;16.82;39.92
74343;BME280;62767;50.300;8.070;2024-01-07T02:41:15;99671.66;;;16.63;39.46
74343;BME280;62767;50.300;8.070;2024-01-07T02:43:40;99667.31;;;16.52;40.26
74343;BME280;62767;50.300;8.070;2024-01-07T02:46:07;99670.47;;;16.46;40.72
74343;BME280;62767;50.300;8.070;2024-01-07T02:48:32;99669.31;;;16.39;39.83
74343;BME280;62767;50.300;8.070;2024-01-07T02:50:58;99668.13;;;16.01;41.87
74343;BME280;62767;50.300;8.070;2024-01-07T02:53:24;99668.34;;;16.10;42.14
74343;BME280;62767;50.300;8.070;2024-01-07T02:55:49;99671.03;;;15.98;41.13
74343;BME280;62767;50.300;8.070;2024-01-07T02:58:15;99672.19;;;16.05;41.70
74343;BME280;62767;50.300;8.070;2024-01-07T03:00:41;99674.16;;;16.13;41.06
74343;BME280;62767;50.300;8.070;2024-01-07T03:03:06;99666.75;;;16.18;41.31
74343;BME280;62767;50.300;8.070;2024-01-07T03:05:32;99681.72;;;16.58;40.07
74343;BME280;62767;50.300;8.070;2024-01-07T03:07:58;99674.88;;;16.45;40.06
74343;BME280;62767;50.300;8.070;2024-01-07T03:10:25;99670.97;;;16.70;39.36
74343;BME280;62767;50.300;8.070;2024-01-07T03:12:50;99682.31;;;16.71;39.89
74343;BME280;62767;50.300;8.070;2024-01-07T03:15:16;99680.41;;;16.73;39.67
74343;BME280;62767;50.300;8.070;2024-01-07T03:17:41;99683.50;;;16.57;39.48
74343;BME280;62767;50.300;8.070;2024-01-07T03:20:07;99680.38;;;16.42;39.63
74343;BME280;62767;50.300;8.070;2024-01-07T03:22:33;99681.31;;;16.32;40.36
74343;BME280;62767;50.300;8.070;2024-01-07T03:24:58;99676.41;;;16.18;40.71
74343;BME280;62767;50.300;8.070;2024-01-07T03:27:24;99681.44;;;16.30;40.58
74343;BME280;62767;50.300;8.070;2024-01-07T03:29:49;99682.59;;;16.17;39.67
74343;BME280;62767;50.300;8.070;2024-01-07T03:32:15;99679.41;;;16.13;40.05
74343;BME280;62767;50.300;8.070;2024-01-07T03:34:40;99684.09;;;16.10;39.42
74343;BME280;62767;50.300;8.070;2024-01-07T03:37:06;99677.00;;;16.00;40.26
74343;BME280;62767;50.300;8.070;2024-01-07T03:39:33;99689.91;;;15.92;40.98
74343;BME280;62767;50.300;8.070;2024-01-07T03:41:58;99686.00;;;15.87;41.15
74343;BME280;62767;50.300;8.070;2024-01-07T03:44:24;99679.34;;;15.83;40.92
74343;BME280;62767;50.300;8.070;2024-01-07T03:46:50;99685.09;;;15.77;40.76
74343;BME280;62767;50.300;8.070;2024-01-07T03:49:16;99692.03;;;15.78;41.70
74343;BME280;62767;50.300;8.070;2024-01-07T03:51:43;99688.41;;;15.79;41.48
74343;BME280;62767;50.300;8.070;2024-01-07T03:54:09;99690.81;;;15.82;42.07
74343;BME280;62767;50.300;8.070;2024-01-07T03:56:34;99686.50;;;15.81;41.76
74343;BME280;62767;50.300;8.070;2024-01-07T03:59:00;99691.59;;;15.61;41.34
74343;BME280;62767;50.300;8.070;2024-01-07T04:01:25;99699.22;;;15.64;41.87
74343;BME280;62767;50.300;8.070;2024-01-07T04:03:51;99698.44;;;15.53;41.68
74343;BME280;62767;50.300;8.070;2024-01-07T04:06:16;99694.72;;;15.55;42.20
74343;BME280;62767;50.300;8.070;2024-01-07T04:08:42;99696.22;;;15.69;41.98
74343;BME280;62767;50.300;8.070;2024-01-07T04:11:08;99699.41;;;15.73;41.41
74343;BME280;62767;50.300;8.070;2024-01-07T04:13:33;99702.19;;;15.92;41.36
74343;BME280;62767;50.300;8.070;2024-01-07T04:15:59;99702.34;;;16.11;41.39
74343;BME280;62767;50.300;8.070;2024-01-07T04:18:24;99700.28;;;16.35;40.29
74343;BME280;62767;50.300;8.070;2024-01-07T04:20:50;99702.81;;;16.46;40.39
74343;BME280;62767;50.300;8.070;2024-01-07T04:23:15;99706.78;;;16.62;40.27
74343;BME280;62767;50.300;8.070;2024-01-07T04:25:41;99711.19;;;16.61;40.03
74343;BME280;62767;50.300;8.070;2024-01-07T04:28:07;99714.16;;;16.77;39.22
74343;BME280;62767;50.300;8.070;2024-01-07T04:30:33;99715.81;;;16.69;39.27
74343;BME280;62767;50.300;8.070;2024-01-07T04:32:58;99721.47;;;16.64;39.54
74343;BME280;62767;50.300;8.070;2024-01-07T04:35:24;99718.19;;;16.51;40.11
74343;BME280;62767;50.300;8.070;2024-01-07T04:37:49;99722.84;;;16.47;40.12
74343;BME280;62767;50.300;8.070;2024-01-07T04:40:15;99723.84;;;16.46;40.03
74343;BME280;62767;50.300;8.070;2024-01-07T04:42:40;99726.16;;;16.40;40.24
74343;BME280;62767;50.300;8.070;2024-01-07T04:45:06;99726.66;;;16.34;39.93
74343;BME280;62767;50.300;8.070;2024-01-07T04:47:33;99729.22;;;16.24;40.17
74343;BME280;62767;50.300;8.070;2024-01-07T04:50:02;99726.97;;;16.20;40.97
74343;BME280;62767;50.300;8.070;2024-01-07T04:52:28;99737.88;;;15.94;40.08
74343;BME280;62767;50.300;8.070;2024-01-07T04:54:54;99732.53;;;15.85;40.80
74343;BME280;62767;50.300;8.070;2024-01-07T04:57:21;99733.47;;;15.84;41.29
74343;BME280;62767;50.300;8.070;2024-01-07T04:59:47;99744.13;;;15.82;41.12
74343;BME280;62767;50.300;8.070;2024-01-07T05:02:13;99741.63;;;15.81;41.56
74343;BME280;62767;50.300;8.070;2024-01-07T05:04:38;99744.50;;;15.78;41.25
74343;BME280;62767;50.300;8.070;2024-01-07T05:07:04;99752.72;;;15.73;41.50
74343;BME280;62767;50.300;8.070;2024-01-07T05:09:32;99756.91;;;15.76;41.40
74343;BME280;62767;50.300;8.070;2024-01-07T05:11:57;99758.47;;;15.67;41.57
74343;BME280;62767;50.300;8.070;2024-01-07T05:14:23;99758.66;;;15.54;40.97
74343;BME280;62767;50.300;8.070;2024-01-07T05:16:48;99759.13;;;15.59;41.91
74343;BME280;62767;50.300;8.070;2024-01-07T05:19:14;99772.81;;;15.63;42.12
74343;BME280;62767;50.300;8.070;2024-01-07T05:21:39;99769.81;;;15.68;42.28
74343;BME280;62767;50.300;8.070;2024-01-07T05:24:06;99769.41;;;15.83;42.16
74343;BME280;62767;50.300;8.070;2024-01-07T05:26:38;99771.16;;;15.94;41.28
74343;BME280;62767;50.300;8.070;2024-01-07T05:29:03;99781.84;;;16.02;41.20
74343;BME280;62767;50.300;8.070;2024-01-07T05:31:29;99780.75;;;16.04;40.93
74343;BME280;62767;50.300;8.070;2024-01-07T05:33:54;99778.72;;;16.08;40.08
74343;BME280;62767;50.300;8.070;2024-01-07T05:36:20;99783.34;;;16.16;40.48
74343;BME280;62767;50.300;8.070;2024-01-07T05:38:46;99787.56;;;16.28;40.20
74343;BME280;62767;50.300;8.070;2024-01-07T05:41:12;99793.59;;;16.39;40.27
74343;BME280;62767;50.300;8.070;2024-01-07T05:43:38;99789.22;;;16.49;40.25
74343;BME280;62767;50.300;8.070;2024-01-07T05:46:03;99793.22;;;16.44;40.01
74343;BME280;62767;50.300;8.070;2024-01-07T05:48:29;99800.31;;;16.32;39.83
74343;BME280;62767;50.300;8.070;2024-01-07T05:50:54;99801.94;;;16.13;39.82
74343;BME280;62767;50.300;8.070;2024-01-07T05:53:20;99807.72;;;16.06;40.91
74343;BME280;62767;50.300;8.070;2024-01-07T05:55:45;99808.72;;;15.94;39.62
74343;BME280;62767;50.300;8.070;2024-01-07T05:58:11;99805.66;;;15.78;40.17
74343;BME280;62767;50.300;8.070;2024-01-07T06:00:37;99815.63;;;15.63;40.24
74343;BME280;62767;50.300;8.070;2024-01-07T06:03:03;99823.47;;;15.63;41.58
74343;BME280;62767;50.300;8.070;2024-01-07T06:05:29;99826.22;;;15.62;41.43
74343;BME280;62767;50.300;8.070;2024-01-07T06:07:55;99838.41;;;15.52;41.80
74343;BME280;62767;50.300;8.070;2024-01-07T06:10:20;99834.72;;;15.54;41.89
74343;BME280;62767;50.300;8.070;2024-01-07T06:12:46;99835.50;;;15.44;41.78
74343;BME280;62767;50.300;8.070;2024-01-07T06:15:11;99836.97;;;15.48;42.75
74343;BME280;62767;50.300;8.070;2024-01-07T06:17:37;99842.06;;;15.38;41.64
74343;BME280;62767;50.300;8.070;2024-01-07T06:20:03;99847.31;;;15.49;42.55
74343;BME280;62767;50.300;8.070;2024-01-07T06:22:29;99849.59;;;15.43;42.15
74343;BME280;62767;50.300;8.070;2024-01-07T06:24:54;99860.78;;;15.34;41.82
74343;BME280;62767;50.300;8.070;2024-01-07T06:27:20;99855.09;;;15.29;42.29
74343;BME280;62767;50.300;8.070;2024-01-07T06:29:45;99855.34;;;15.25;40.75
74343;BME280;62767;50.300;8.070;2024-01-07T06:32:11;99869.38;;;15.24;41.02
74343;BME280;62767;50.300;8.070;2024-01-07T06:34:36;99869.28;;;15.26;42.48
74343;BME280;62767;50.300;8.070;2024-01-07T06:37:02;99867.97;;;15.43;42.05
74343;BME280;62767;50.300;8.070;2024-01-07T06:39:28;99874.91;;;15.55;41.92
74343;BME280;62767;50.300;8.070;2024-01-07T06:41:53;99870.94;;;15.72;41.32
74343;BME280;62767;50.300;8.070;2024-01-07T06:44:19;99870.31;;;15.79;41.67
74343;BME280;62767;50.300;8.070;2024-01-07T06:46:45;99873.63;;;15.92;41.27
74343;BME280;62767;50.300;8.070;2024-01-07T06:49:10;99882.69;;;15.99;41.21
74343;BME280;62767;50.300;8.070;2024-01-07T06:51:37;99881.78;;;16.21;40.35
74343;BME280;62767;50.300;8.070;2024-01-07T06:54:03;99878.69;;;16.16;40.60
74343;BME280;62767;50.300;8.070;2024-01-07T06:56:28;99891.38;;;16.11;39.98
74343;BME280;62767;50.300;8.070;2024-01-07T06:58:54;99886.50;;;16.06;40.81
74343;BME280;62767;50.300;8.070;2024-01-07T07:01:20;99897.00;;;16.06;40.99
74343;BME280;62767;50.300;8.070;2024-01-07T07:03:47;99897.94;;;16.05;40.82
74343;BME280;62767;50.300;8.070;2024-01-07T07:06:12;99898.56;;;15.98;40.46
74343;BME280;62767;50.300;8.070;2024-01-07T07:08:38;99900.00;;;15.91;39.76
74343;BME280;62767;50.300;8.070;2024-01-07T07:11:03;99903.97;;;15.74;40.75
74343;BME280;62767;50.300;8.070;2024-01-07T07:13:29;99910.75;;;15.43;40.67
74343;BME280;62767;50.300;8.070;2024-01-07T07:15:55;99911.44;;;15.45;41.79
74343;BME280;62767;50.300;8.070;2024-01-07T07:18:20;99922.31;;;15.41;41.89
74343;BME280;62767;50.300;8.070;2024-01-07T07:20:46;99928.03;;;15.35;42.33
74343;BME280;62767;50.300;8.070;2024-01-07T07:23:11;99918.72;;;15.31;42.07
74343;BME280;62767;50.300;8.070;2024-01-07T07:25:37;99923.25;;;15.29;42.08
74343;BME280;62767;50.300;8.070;2024-01-07T07:28:02;99932.31;;;15.24;42.14
74343;BME280;62767;50.300;8.070;2024-01-07T07:30:28;99935.78;;;15.25;42.19
74343;BME280;62767;50.300;8.070;2024-01-07T07:32:55;99933.38;;;15.22;42.37
74343;BME280;62767;50.300;8.070;2024-01-07T07:35:20;99944.56;;;15.13;42.20
74343;BME280;62767;50.300;8.070;2024-01-07T07:37:46;99939.06;;;15.16;41.67
74343;BME280;62767;50.300;8.070;2024-01-07T07:40:12;99948.72;;;15.15;42.89
74343;BME280;62767;50.300;8.070;2024-01-07T07:42:38;99961.97;;;15.14;42.08
74343;BME280;62767;50.300;8.070;2024-01-07T07:45:04;99958.75;;;15.21;42.32
74343;BME280;62767;50.300;8.070;2024-01-07T07:47:30;99960.22;;;15.37;42.19
74343;BME280;62767;50.300;8.070;2024-01-07T07:49:56;99965.56;;;15.35;40.94
74343;BME280;62767;50.300;8.070;2024-01-07T07:52:22;99964.19;;;15.64;41.99
74343;BME280;62767;50.300;8.070;2024-01-07T07:54:51;99979.34;;;15.72;41.89
74343;BME280;62767;50.300;8.070;2024-01-07T07:57:17;99974.31;;;15.80;41.01
74343;BME280;62767;50.300;8.070;2024-01-07T07:59:42;99981.81;;;15.96;40.04
74343;BME280;62767;50.300;8.070;2024-01-07T08:02:08;99979.19;;;16.07;41.14
74343;BME280;62767;50.300;8.070;2024-01-07T08:04:33;99984.69;;;16.04;40.23
74343;BME280;62767;50.300;8.070;2024-01-07T08:06:59;99990.41;;;16.09;40.11
74343;BME280;62767;50.300;8.070;2024-01-07T08:09:26;99999.84;;;16.00;40.53
74343;BME280;62767;50.300;8.070;2024-01-07T08:11:51;100005.59;;;15.94;40.41
74343;BME280;62767;50.300;8.070;2024-01-07T08:14:17;100008.22;;;15.83;39.68
74343;BME280;62767;50.300;8.070;2024-01-07T08:16:42;100008.31;;;15.71;39.78
74343;BME280;62767;50.300;8.070;2024-01-07T08:19:08;100013.38;;;15.50;39.27
74343;BME280;62767;50.300;8.070;2024-01-07T08:21:33;100010.38;;;15.32;40.34
74343;BME280;62767;50.300;8.070;2024-01-07T08:23:59;100015.72;;;15.19;40.80
74343;BME280;62767;50.300;8.070;2024-01-07T08:26:24;100017.03;;;15.14;40.83
74343;BME280;62767;50.300;8.070;2024-01-07T08:28:50;100021.25;;;15.04;41.32
74343;BME280;62767;50.300;8.070;2024-01-07T08:31:15;100023.94;;;16.28;36.06
74343;BME280;62767;50.300;8.070;2024-01-07T08:33:43;100020.75;;;17.41;31.47
74343;BME280;62767;50.300;8.070;2024-01-07T08:36:09;100025.66;;;17.66;30.29
74343;BME280;62767;50.300;8.070;2024-01-07T08:38:34;100021.91;;;17.48;30.09
74343;BME280;62767;50.300;8.070;2024-01-07T08:41:00;100033.53;;;17.24;30.25
74343;BME280;62767;50.300;8.070;2024-01-07T08:43:26;100028.81;;;16.86;31.02
74343;BME280;62767;50.300;8.070;2024-01-07T08:45:51;100041.22;;;16.30;31.91
74343;BME280;62767;50.300;8.070;2024-01-07T08:48:17;100039.81;;;16.04;32.70
74343;BME280;62767;50.300;8.070;2024-01-07T08:50:43;100036.72;;;15.31;33.71
74343;BME280;62767;50.300;8.070;2024-01-07T08:53:08;100048.28;;;15.39;33.61
74343;BME280;62767;50.300;8.070;2024-01-07T08:55:34;100048.22;;;14.82;34.82
74343;BME280;62767;50.300;8.070;2024-01-07T08:57:59;100051.50;;;14.73;35.06
74343;BME280;62767;50.300;8.070;2024-01-07T09:00:25;100053.88;;;14.52;35.25
74343;BME280;62767;50.300;8.070;2024-01-07T09:02:52;100057.38;;;14.40;35.26
74343;BME280;62767;50.300;8.070;2024-01-07T09:05:18;100054.47;;;13.94;36.07
74343;BME280;62767;50.300;8.070;2024-01-07T09:07:43;100055.75;;;13.88;35.99
74343;BME280;62767;50.300;8.070;2024-01-07T09:10:09;100064.75;;;13.46;36.85
74343;BME280;62767;50.300;8.070;2024-01-07T09:12:39;100068.28;;;14.21;36.00
74343;BME280;62767;50.300;8.070;2024-01-07T09:15:05;100072.03;;;16.06;32.95
74343;BME280;62767;50.300;8.070;2024-01-07T09:17:37;100075.28;;;18.71;28.42
74343;BME280;62767;50.300;8.070;2024-01-07T09:20:04;100078.00;;;20.32;25.88
74343;BME280;62767;50.300;8.070;2024-01-07T09:22:33;100068.72;;;21.87;23.65
74343;BME280;62767;50.300;8.070;2024-01-07T09:24:58;100076.63;;;23.46;21.50
74343;BME280;62767;50.300;8.070;2024-01-07T09:27:24;100086.75;;;24.46;20.26
74343;BME280;62767;50.300;8.070;2024-01-07T09:29:50;100089.25;;;25.47;19.34
74343;BME280;62767;50.300;8.070;2024-01-07T09:32:15;100092.97;;;26.56;18.07
74343;BME280;62767;50.300;8.070;2024-01-07T09:34:41;100092.25;;;27.20;16.98
74343;BME280;62767;50.300;8.070;2024-01-07T09:37:06;100093.69;;;27.93;16.67
74343;BME280;62767;50.300;8.070;2024-01-07T09:39:32;100096.91;;;28.50;16.32
74343;BME280;62767;50.300;8.070;2024-01-07T09:41:58;100096.91;;;28.50;16.32
74343;BME280;62767;50.300;8.070;2024-01-07T09:44:25;100101.00;;;19.65;26.17
74343;BME280;62767;50.300;8.070;2024-01-07T09:46:51;100119.03;;;17.92;29.56
74343;BME280;62767;50.300;8.070;2024-01-07T09:49:17;100113.97;;;16.95;32.00
74343;BME280;62767;50.300;8.070;2024-01-07T09:51:45;100118.81;;;16.01;33.75
74343;BME280;62767;50.300;8.070;2024-01-07T09:54:13;100114.78;;;15.62;35.09
74343;BME280;62767;50.300;8.070;2024-01-07T09:56:50;100122.47;;;15.41;35.75
74343;BME280;62767;50.300;8.070;2024-01-07T09:59:20;100120.41;;;15.34;35.98
74343;BME280;62767;50.300;8.070;2024-01-07T10:01:46;100124.00;;;15.44;36.52
74343;BME280;62767;50.300;8.070;2024-01-07T10:04:12;100129.06;;;15.23;36.24
74343;BME280;62767;50.300;8.070;2024-01-07T10:06:38;100129.16;;;14.98;37.32
74343;BME280;62767;50.300;8.070;2024-01-07T10:09:06;100131.50;;;14.90;37.76
74343;BME280;62767;50.300;8.070;2024-01-07T10:11:32;100133.84;;;14.81;37.69
74343;BME280;62767;50.300;8.070;2024-01-07T10:13:58;100131.94;;;14.83;37.82
74343;BME280;62767;50.300;8.070;2024-01-07T10:16:23;100134.19;;;15.01;37.87
74343;BME280;62767;50.300;8.070;2024-01-07T10:18:49;100128.06;;;14.89;38.04
74343;BME280;62767;50.300;8.070;2024-01-07T10:21:14;100127.22;;;14.89;38.95
74343;BME280;62767;50.300;8.070;2024-01-07T10:23:40;100133.50;;;14.86;39.00
74343;BME280;62767;50.300;8.070;2024-01-07T10:26:06;100138.19;;;14.94;38.83
74343;BME280;62767;50.300;8.070;2024-01-07T10:28:32;100144.78;;;14.99;39.73
74343;BME280;62767;50.300;8.070;2024-01-07T10:30:57;100148.63;;;15.06;39.05
74343;BME280;62767;50.300;8.070;2024-01-07T10:33:23;100152.63;;;14.99;38.98
74343;BME280;62767;50.300;8.070;2024-01-07T10:35:57;100149.81;;;15.02;37.29
74343;BME280;62767;50.300;8.070;2024-01-07T10:38:26;100154.75;;;14.94;38.68
74343;BME280;62767;50.300;8.070;2024-01-07T10:40:54;100148.28;;;14.87;39.56
74343;BME280;62767;50.300;8.070;2024-01-07T10:43:21;100154.47;;;14.86;38.61
74343;BME280;62767;50.300;8.070;2024-01-07T10:45:47;100144.94;;;14.85;38.95
74343;BME280;62767;50.300;8.070;2024-01-07T10:48:19;100153.97;;;15.05;38.67
74343;BME280;62767;50.300;8.070;2024-01-07T10:50:45;100158.78;;;15.11;38.89
74343;BME280;62767;50.300;8.070;2024-01-07T10:53:18;100161.69;;;15.19;38.19
74343;BME280;62767;50.300;8.070;2024-01-07T10:55:54;100167.16;;;15.40;37.35
74343;BME280;62767;50.300;8.070;2024-01-07T10:58:23;100172.72;;;15.11;39.63
74343;BME280;62767;50.300;8.070;2024-01-07T11:00:49;100172.75;;;14.99;37.99
74343;BME280;62767;50.300;8.070;2024-01-07T11:03:57;100163.59;;;15.17;39.87
74343;BME280;62767;50.300;8.070;2024-01-07T11:06:33;100168.22;;;15.13;38.85
74343;BME280;62767;50.300;8.070;2024-01-07T11:09:03;100174.97;;;15.29;40.23
74343;BME280;62767;50.300;8.070;2024-01-07T11:11:35;100172.69;;;15.48;40.53
74343;BME280;62767;50.300;8.070;2024-01-07T11:14:03;100177.03;;;15.36;37.82
74343;BME280;62767;50.300;8.070;2024-01-07T11:16:42;100173.53;;;15.24;40.19
74343;BME280;62767;50.300;8.070;2024-01-07T11:19:08;100164.38;;;15.30;39.82
74343;BME280;62767;50.300;8.070;2024-01-07T11:21:33;100164.19;;;15.20;38.41
74343;BME280;62767;50.300;8.070;2024-01-07T11:23:59;100169.91;;;15.14;38.62
74343;BME280;62767;50.300;8.070;2024-01-07T11:26:28;100169.31;;;14.98;38.57
74343;BME280;62767;50.300;8.070;2024-01-07T11:28:56;100173.41;;;15.02;39.40
74343;BME280;62767;50.300;8.070;2024-01-07T11:34:07;100165.47;;;14.91;39.04
74343;BME280;62767;50.300;8.070;2024-01-07T11:36:37;100166.13;;;14.82;40.25
74343;BME280;62767;50.300;8.070;2024-01-07T11:39:03;100177.03;;;14.76;40.19
74343;BME280;62767;50.300;8.070;2024-01-07T11:41:33;100174.22;;;14.79;40.51
74343;BME280;62767;50.300;8.070;2024-01-07T11:43:59;100170.66;;;14.80;40.82
74343;BME280;62767;50.300;8.070;2024-01-07T11:46:26;100167.91;;;14.81;40.80
74343;BME280;62767;50.300;8.070;2024-01-07T11:48:55;100172.84;;;14.73;40.60
74343;BME280;62767;50.300;8.070;2024-01-07T11:51:30;100168.91;;;14.55;41.48
74343;BME280;62767;50.300;8.070;2024-01-07T11:53:57;100168.03;;;14.67;41.46
74343;BME280;62767;50.300;8.070;2024-01-07T11:56:27;100168.22;;;14.77;42.21
74343;BME280;62767;50.300;8.070;2024-01-07T11:58:53;100171.53;;;14.92;41.00
74343;BME280;62767;50.300;8.070;2024-01-07T12:01:21;100173.00;;;14.96;38.76
74343;BME280;62767;50.300;8.070;2024-01-07T12:03:47;100168.53;;;15.09;41.46
74343;BME280;62767;50.300;8.070;2024-01-07T12:06:13;100166.03;;;15.07;40.10
74343;BME280;62767;50.300;8.070;2024-01-07T12:08:40;100184.63;;;15.28;40.98
74343;BME280;62767;50.300;8.070;2024-01-07T12:11:06;100183.03;;;15.49;40.46
74343;BME280;62767;50.300;8.070;2024-01-07T12:13:32;100177.16;;;15.58;41.20
74343;BME280;62767;50.300;8.070;2024-01-07T12:15:58;100180.78;;;15.80;41.39
74343;BME280;62767;50.300;8.070;2024-01-07T12:18:24;100180.09;;;15.78;40.23
74343;BME280;62767;50.300;8.070;2024-01-07T12:20:55;100177.38;;;16.01;40.06
74343;BME280;62767;50.300;8.070;2024-01-07T12:23:21;100182.53;;;16.03;39.58
74343;BME280;62767;50.300;8.070;2024-01-07T12:25:47;100188.88;;;16.12;39.55
74343;BME280;62767;50.300;8.070;2024-01-07T12:28:13;100194.34;;;16.08;40.04
74343;BME280;62767;50.300;8.070;2024-01-07T12:30:39;100195.53;;;15.93;39.69
74343;BME280;62767;50.300;8.070;2024-01-07T12:33:05;100191.31;;;15.91;39.37
74343;BME280;62767;50.300;8.070;2024-01-07T12:35:31;100198.91;;;15.72;39.35
74343;BME280;62767;50.300;8.070;2024-01-07T12:37:56;100200.44;;;15.50;38.30
74343;BME280;62767;50.300;8.070;2024-01-07T12:40:24;100203.84;;;16.56;30.87
74343;BME280;62767;50.300;8.070;2024-01-07T12:42:52;100205.88;;;16.97;27.99
74343;BME280;62767;50.300;8.070;2024-01-07T12:45:18;100202.91;;;16.68;27.30
74343;BME280;62767;50.300;8.070;2024-01-07T12:47:44;100210.16;;;16.42;27.33
74343;BME280;62767;50.300;8.070;2024-01-07T12:50:11;100210.34;;;16.05;28.52
74343;BME280;62767;50.300;8.070;2024-01-07T12:52:37;100218.53;;;15.55;29.12
74343;BME280;62767;50.300;8.070;2024-01-07T12:55:04;100230.41;;;15.11;30.52
74343;BME280;62767;50.300;8.070;2024-01-07T12:57:30;100220.75;;;14.37;30.48
74343;BME280;62767;50.300;8.070;2024-01-07T12:59:55;100219.88;;;13.99;31.15